sensor_id;sensor_type;location;lat;lon;timestamp;P1;durP1;ratioP1;P2;durP2;ratioP2
11197;SDS011;5655;48.744;9.162;2023-12-22T00:01:28;4.53;;;1.35;;
11197;SDS011;5655;48.744;9.162;2023-12-22T00:03:53;3.95;;;1.10;;
11197;SDS011;5655;48.744;9.162;2023-12-22T00:06:19;2.90;;;1.65;;
11197;SDS011;5655;48.744;9.162;2023-12-22T00:08:44;4.63;;;1.30;;
11197;SDS011;5655;48.744;9.162;2023-12-22T00:11:09;9.20;;;1.50;;
11197;SDS011;5655;48.744;9.162;2023-12-22T00:13:35;5.40;;;1.52;;
11197;SDS011;5655;48.744;9.162;2023-12-22T00:16:00;8.82;;;1.83;;
11197;SDS011;5655;48.744;9.162;2023-12-22T00:18:28;6.53;;;1.98;;
11197;SDS011;5655;48.744;9.162;2023-12-22T00:20:54;10.23;;;2.30;;
11197;SDS011;5655;48.744;9.162;2023-12-22T00:23:19;8.32;;;2.10;;
11197;SDS011;5655;48.744;9.162;2023-12-22T00:25:44;6.93;;;2.13;;
11197;SDS011;5655;48.744;9.162;2023-12-22T00:28:10;7.65;;;1.70;;
11197;SDS011;5655;48.744;9.162;2023-12-22T00:30:35;9.30;;;1.40;;
11197;SDS011;5655;48.744;9.162;2023-12-22T00:33:01;3.10;;;1.70;;
11197;SDS011;5655;48.744;9.162;2023-12-22T00:35:26;8.10;;;1.73;;
11197;SDS011;5655;48.744;9.162;2023-12-22T00:37:51;4.15;;;1.50;;
11197;SDS011;5655;48.744;9.162;2023-12-22T00:40:18;6.30;;;1.50;;
11197;SDS011;5655;48.744;9.162;2023-12-22T00:42:43;5.00;;;1.70;;
11197;SDS011;5655;48.744;9.162;2023-12-22T00:45:08;4.22;;;1.33;;
11197;SDS011;5655;48.744;9.162;2023-12-22T00:47:34;5.22;;;1.70;;
11197;SDS011;5655;48.744;9.162;2023-12-22T00:50:00;1.63;;;1.20;;
11197;SDS011;5655;48.744;9.162;2023-12-22T00:52:26;3.33;;;1.20;;
11197;SDS011;5655;48.744;9.162;2023-12-22T00:54:52;3.03;;;1.15;;
11197;SDS011;5655;48.744;9.162;2023-12-22T00:57:17;4.78;;;1.40;;
11197;SDS011;5655;48.744;9.162;2023-12-22T00:59:42;3.28;;;1.38;;
11197;SDS011;5655;48.744;9.162;2023-12-22T01:02:12;4.93;;;1.35;;
11197;SDS011;5655;48.744;9.162;2023-12-22T01:04:40;4.28;;;1.42;;
11197;SDS011;5655;48.744;9.162;2023-12-22T01:07:10;3.08;;;1.13;;
11197;SDS011;5655;48.744;9.162;2023-12-22T01:09:36;6.75;;;1.63;;
11197;SDS011;5655;48.744;9.162;2023-12-22T01:12:05;5.78;;;1.52;;
11197;SDS011;5655;48.744;9.162;2023-12-22T01:17:01;3.92;;;1.30;;
11197;SDS011;5655;48.744;9.162;2023-12-22T01:19:26;4.57;;;1.17;;
11197;SDS011;5655;48.744;9.162;2023-12-22T01:21:51;6.57;;;1.33;;
11197;SDS011;5655;48.744;9.162;2023-12-22T01:24:16;5.10;;;1.50;;
11197;SDS011;5655;48.744;9.162;2023-12-22T01:26:42;6.07;;;1.50;;
11197;SDS011;5655;48.744;9.162;2023-12-22T01:29:07;3.08;;;1.25;;
11197;SDS011;5655;48.744;9.162;2023-12-22T01:31:33;6.13;;;1.73;;
11197;SDS011;5655;48.744;9.162;2023-12-22T01:33:58;4.80;;;1.45;;
11197;SDS011;5655;48.744;9.162;2023-12-22T01:36:23;5.72;;;1.15;;
11197;SDS011;5655;48.744;9.162;2023-12-22T01:38:48;5.25;;;1.33;;
11197;SDS011;5655;48.744;9.162;2023-12-22T01:41:14;4.88;;;1.60;;
11197;SDS011;5655;48.744;9.162;2023-12-22T01:43:39;3.53;;;1.05;;
11197;SDS011;5655;48.744;9.162;2023-12-22T01:46:04;4.93;;;1.02;;
11197;SDS011;5655;48.744;9.162;2023-12-22T01:48:32;4.70;;;1.05;;
11197;SDS011;5655;48.744;9.162;2023-12-22T01:50:58;4.25;;;1.10;;
11197;SDS011;5655;48.744;9.162;2023-12-22T01:53:26;2.65;;;0.73;;
11197;SDS011;5655;48.744;9.162;2023-12-22T01:55:51;2.97;;;0.80;;
11197;SDS011;5655;48.744;9.162;2023-12-22T01:58:19;1.33;;;0.75;;
11197;SDS011;5655;48.744;9.162;2023-12-22T02:00:45;4.10;;;0.80;;
11197;SDS011;5655;48.744;9.162;2023-12-22T02:03:11;1.67;;;0.50;;
11197;SDS011;5655;48.744;9.162;2023-12-22T02:05:37;1.55;;;0.70;;
11197;SDS011;5655;48.744;9.162;2023-12-22T02:08:03;2.63;;;0.70;;
11197;SDS011;5655;48.744;9.162;2023-12-22T02:10:28;2.53;;;0.60;;
11197;SDS011;5655;48.744;9.162;2023-12-22T02:12:54;1.95;;;0.70;;
11197;SDS011;5655;48.744;9.162;2023-12-22T02:15:19;3.53;;;0.80;;
11197;SDS011;5655;48.744;9.162;2023-12-22T02:17:49;2.28;;;0.77;;
11197;SDS011;5655;48.744;9.162;2023-12-22T02:20:21;4.13;;;0.80;;
11197;SDS011;5655;48.744;9.162;2023-12-22T02:22:50;2.67;;;0.70;;
11197;SDS011;5655;48.744;9.162;2023-12-22T02:25:17;1.80;;;0.80;;
11197;SDS011;5655;48.744;9.162;2023-12-22T02:27:48;1.45;;;0.63;;
11197;SDS011;5655;48.744;9.162;2023-12-22T02:32:53;2.83;;;0.80;;
11197;SDS011;5655;48.744;9.162;2023-12-22T02:35:22;2.25;;;0.88;;
11197;SDS011;5655;48.744;9.162;2023-12-22T02:37:50;1.33;;;0.70;;
11197;SDS011;5655;48.744;9.162;2023-12-22T02:40:16;3.05;;;1.00;;
11197;SDS011;5655;48.744;9.162;2023-12-22T02:42:42;2.05;;;1.08;;
11197;SDS011;5655;48.744;9.162;2023-12-22T02:45:15;3.47;;;0.90;;
11197;SDS011;5655;48.744;9.162;2023-12-22T02:47:42;2.95;;;1.15;;
11197;SDS011;5655;48.744;9.162;2023-12-22T02:50:07;3.47;;;1.08;;
11197;SDS011;5655;48.744;9.162;2023-12-22T02:52:33;2.65;;;0.85;;
11197;SDS011;5655;48.744;9.162;2023-12-22T02:54:59;5.95;;;1.75;;
11197;SDS011;5655;48.744;9.162;2023-12-22T02:57:24;2.15;;;0.90;;
11197;SDS011;5655;48.744;9.162;2023-12-22T02:59:49;2.38;;;0.90;;
11197;SDS011;5655;48.744;9.162;2023-12-22T03:02:15;5.32;;;1.25;;
11197;SDS011;5655;48.744;9.162;2023-12-22T03:04:40;3.20;;;1.33;;
11197;SDS011;5655;48.744;9.162;2023-12-22T03:07:05;4.70;;;1.40;;
11197;SDS011;5655;48.744;9.162;2023-12-22T03:09:31;5.68;;;1.40;;
11197;SDS011;5655;48.744;9.162;2023-12-22T03:11:57;4.45;;;1.10;;
11197;SDS011;5655;48.744;9.162;2023-12-22T03:14:26;3.90;;;0.93;;
11197;SDS011;5655;48.744;9.162;2023-12-22T03:16:55;6.68;;;1.30;;
11197;SDS011;5655;48.744;9.162;2023-12-22T03:19:21;2.67;;;0.77;;
11197;SDS011;5655;48.744;9.162;2023-12-22T03:21:47;3.67;;;1.05;;
11197;SDS011;5655;48.744;9.162;2023-12-22T03:24:13;6.30;;;1.00;;
11197;SDS011;5655;48.744;9.162;2023-12-22T03:26:38;3.92;;;1.70;;
11197;SDS011;5655;48.744;9.162;2023-12-22T03:29:04;5.60;;;1.17;;
11197;SDS011;5655;48.744;9.162;2023-12-22T03:31:30;2.15;;;1.08;;
11197;SDS011;5655;48.744;9.162;2023-12-22T03:33:55;3.50;;;1.02;;
11197;SDS011;5655;48.744;9.162;2023-12-22T03:36:21;2.10;;;0.70;;
11197;SDS011;5655;48.744;9.162;2023-12-22T03:38:46;3.72;;;1.02;;
11197;SDS011;5655;48.744;9.162;2023-12-22T03:41:12;3.72;;;1.35;;
11197;SDS011;5655;48.744;9.162;2023-12-22T03:43:37;5.13;;;1.17;;
11197;SDS011;5655;48.744;9.162;2023-12-22T03:46:02;6.93;;;1.40;;
11197;SDS011;5655;48.744;9.162;2023-12-22T03:48:28;2.45;;;0.98;;
11197;SDS011;5655;48.744;9.162;2023-12-22T03:50:53;2.78;;;1.40;;
11197;SDS011;5655;48.744;9.162;2023-12-22T03:53:18;5.25;;;1.25;;
11197;SDS011;5655;48.744;9.162;2023-12-22T03:55:44;6.03;;;1.60;;
11197;SDS011;5655;48.744;9.162;2023-12-22T03:58:10;4.18;;;1.10;;
11197;SDS011;5655;48.744;9.162;2023-12-22T04:00:35;3.05;;;1.10;;
11197;SDS011;5655;48.744;9.162;2023-12-22T04:03:01;6.88;;;1.52;;
11197;SDS011;5655;48.744;9.162;2023-12-22T04:05:26;8.13;;;1.25;;
11197;SDS011;5655;48.744;9.162;2023-12-22T04:07:52;8.40;;;1.65;;
11197;SDS011;5655;48.744;9.162;2023-12-22T04:10:17;5.32;;;2.05;;
11197;SDS011;5655;48.744;9.162;2023-12-22T04:12:43;4.45;;;1.20;;
11197;SDS011;5655;48.744;9.162;2023-12-22T04:15:09;7.35;;;1.67;;
11197;SDS011;5655;48.744;9.162;2023-12-22T04:17:34;6.10;;;1.30;;
11197;SDS011;5655;48.744;9.162;2023-12-22T04:19:59;6.15;;;1.27;;
11197;SDS011;5655;48.744;9.162;2023-12-22T04:22:25;4.90;;;1.45;;
11197;SDS011;5655;48.744;9.162;2023-12-22T04:24:50;4.82;;;1.67;;
11197;SDS011;5655;48.744;9.162;2023-12-22T04:27:15;8.50;;;1.77;;
11197;SDS011;5655;48.744;9.162;2023-12-22T04:29:40;6.18;;;1.77;;
11197;SDS011;5655;48.744;9.162;2023-12-22T04:32:06;4.57;;;1.70;;
11197;SDS011;5655;48.744;9.162;2023-12-22T04:34:31;9.18;;;1.50;;
11197;SDS011;5655;48.744;9.162;2023-12-22T04:36:56;5.15;;;1.30;;
11197;SDS011;5655;48.744;9.162;2023-12-22T04:39:22;5.68;;;1.50;;
11197;SDS011;5655;48.744;9.162;2023-12-22T04:41:47;3.03;;;1.30;;
11197;SDS011;5655;48.744;9.162;2023-12-22T04:44:12;5.18;;;0.90;;
11197;SDS011;5655;48.744;9.162;2023-12-22T04:46:37;4.15;;;1.00;;
11197;SDS011;5655;48.744;9.162;2023-12-22T04:49:03;4.07;;;1.17;;
11197;SDS011;5655;48.744;9.162;2023-12-22T04:51:28;1.98;;;1.13;;
11197;SDS011;5655;48.744;9.162;2023-12-22T04:53:54;9.15;;;1.75;;
11197;SDS011;5655;48.744;9.162;2023-12-22T04:56:19;2.63;;;1.02;;
11197;SDS011;5655;48.744;9.162;2023-12-22T04:58:44;3.33;;;1.02;;
11197;SDS011;5655;48.744;9.162;2023-12-22T05:01:10;2.90;;;0.80;;
11197;SDS011;5655;48.744;9.162;2023-12-22T05:03:35;5.10;;;0.90;;
11197;SDS011;5655;48.744;9.162;2023-12-22T05:06:00;3.92;;;1.30;;
11197;SDS011;5655;48.744;9.162;2023-12-22T05:08:26;6.47;;;1.30;;
11197;SDS011;5655;48.744;9.162;2023-12-22T05:10:51;2.85;;;0.88;;
11197;SDS011;5655;48.744;9.162;2023-12-22T05:13:16;6.88;;;1.50;;
11197;SDS011;5655;48.744;9.162;2023-12-22T05:15:42;5.03;;;1.38;;
11197;SDS011;5655;48.744;9.162;2023-12-22T05:18:08;5.10;;;1.55;;
11197;SDS011;5655;48.744;9.162;2023-12-22T05:20:33;6.70;;;1.42;;
11197;SDS011;5655;48.744;9.162;2023-12-22T05:22:58;5.38;;;1.80;;
11197;SDS011;5655;48.744;9.162;2023-12-22T05:25:24;12.05;;;1.40;;
11197;SDS011;5655;48.744;9.162;2023-12-22T05:27:49;3.08;;;1.17;;
11197;SDS011;5655;48.744;9.162;2023-12-22T05:30:14;7.47;;;1.85;;
11197;SDS011;5655;48.744;9.162;2023-12-22T05:32:40;4.68;;;2.00;;
11197;SDS011;5655;48.744;9.162;2023-12-22T05:35:05;6.63;;;1.77;;
11197;SDS011;5655;48.744;9.162;2023-12-22T05:37:30;8.93;;;2.13;;
11197;SDS011;5655;48.744;9.162;2023-12-22T05:39:56;11.13;;;1.90;;
11197;SDS011;5655;48.744;9.162;2023-12-22T05:42:21;9.02;;;2.00;;
11197;SDS011;5655;48.744;9.162;2023-12-22T05:44:46;8.98;;;2.00;;
11197;SDS011;5655;48.744;9.162;2023-12-22T05:47:14;9.95;;;2.65;;
11197;SDS011;5655;48.744;9.162;2023-12-22T05:49:40;7.78;;;2.30;;
11197;SDS011;5655;48.744;9.162;2023-12-22T05:52:06;6.22;;;1.70;;
11197;SDS011;5655;48.744;9.162;2023-12-22T05:54:31;6.43;;;1.83;;
11197;SDS011;5655;48.744;9.162;2023-12-22T05:56:56;4.15;;;1.38;;
11197;SDS011;5655;48.744;9.162;2023-12-22T05:59:22;10.50;;;1.88;;
11197;SDS011;5655;48.744;9.162;2023-12-22T06:01:47;6.78;;;1.60;;
11197;SDS011;5655;48.744;9.162;2023-12-22T06:04:12;5.47;;;1.27;;
11197;SDS011;5655;48.744;9.162;2023-12-22T06:06:38;5.30;;;1.55;;
11197;SDS011;5655;48.744;9.162;2023-12-22T06:09:03;6.28;;;1.52;;
11197;SDS011;5655;48.744;9.162;2023-12-22T06:11:29;9.85;;;2.17;;
11197;SDS011;5655;48.744;9.162;2023-12-22T06:13:55;5.80;;;1.40;;
11197;SDS011;5655;48.744;9.162;2023-12-22T06:16:21;7.75;;;1.77;;
11197;SDS011;5655;48.744;9.162;2023-12-22T06:18:47;5.65;;;2.15;;
11197;SDS011;5655;48.744;9.162;2023-12-22T06:21:12;6.47;;;1.83;;
11197;SDS011;5655;48.744;9.162;2023-12-22T06:23:38;6.88;;;1.88;;
11197;SDS011;5655;48.744;9.162;2023-12-22T06:26:10;7.55;;;2.08;;
11197;SDS011;5655;48.744;9.162;2023-12-22T06:28:36;6.97;;;1.70;;
11197;SDS011;5655;48.744;9.162;2023-12-22T06:31:03;7.45;;;1.50;;
11197;SDS011;5655;48.744;9.162;2023-12-22T06:33:29;9.80;;;2.00;;
11197;SDS011;5655;48.744;9.162;2023-12-22T06:35:55;11.18;;;2.30;;
11197;SDS011;5655;48.744;9.162;2023-12-22T06:38:20;9.52;;;2.10;;
11197;SDS011;5655;48.744;9.162;2023-12-22T06:40:45;7.80;;;2.03;;
11197;SDS011;5655;48.744;9.162;2023-12-22T06:43:14;8.20;;;1.70;;
11197;SDS011;5655;48.744;9.162;2023-12-22T06:45:39;9.77;;;2.20;;
11197;SDS011;5655;48.744;9.162;2023-12-22T06:48:05;7.30;;;2.05;;
11197;SDS011;5655;48.744;9.162;2023-12-22T06:50:31;6.97;;;1.67;;
11197;SDS011;5655;48.744;9.162;2023-12-22T06:52:57;5.35;;;1.45;;
11197;SDS011;5655;48.744;9.162;2023-12-22T06:55:22;5.93;;;1.52;;
11197;SDS011;5655;48.744;9.162;2023-12-22T06:57:48;7.35;;;1.45;;
11197;SDS011;5655;48.744;9.162;2023-12-22T07:00:14;7.50;;;1.40;;
11197;SDS011;5655;48.744;9.162;2023-12-22T07:02:39;7.85;;;1.42;;
11197;SDS011;5655;48.744;9.162;2023-12-22T07:07:46;7.30;;;1.45;;
11197;SDS011;5655;48.744;9.162;2023-12-22T07:10:11;5.75;;;1.38;;
11197;SDS011;5655;48.744;9.162;2023-12-22T07:12:37;4.53;;;1.50;;
11197;SDS011;5655;48.744;9.162;2023-12-22T07:15:04;3.75;;;1.10;;
11197;SDS011;5655;48.744;9.162;2023-12-22T07:17:31;7.00;;;1.80;;
11197;SDS011;5655;48.744;9.162;2023-12-22T07:19:57;9.02;;;1.95;;
11197;SDS011;5655;48.744;9.162;2023-12-22T07:22:22;10.23;;;2.00;;
11197;SDS011;5655;48.744;9.162;2023-12-22T07:24:48;8.02;;;1.67;;
11197;SDS011;5655;48.744;9.162;2023-12-22T07:27:14;8.60;;;1.83;;
11197;SDS011;5655;48.744;9.162;2023-12-22T07:29:40;5.93;;;1.35;;
11197;SDS011;5655;48.744;9.162;2023-12-22T07:32:05;9.02;;;1.77;;
11197;SDS011;5655;48.744;9.162;2023-12-22T07:34:31;7.60;;;1.80;;
11197;SDS011;5655;48.744;9.162;2023-12-22T07:36:56;6.70;;;1.60;;
11197;SDS011;5655;48.744;9.162;2023-12-22T07:39:22;3.63;;;1.40;;
11197;SDS011;5655;48.744;9.162;2023-12-22T07:41:47;7.28;;;1.55;;
11197;SDS011;5655;48.744;9.162;2023-12-22T07:44:13;3.60;;;1.35;;
11197;SDS011;5655;48.744;9.162;2023-12-22T07:46:38;11.32;;;1.90;;
11197;SDS011;5655;48.744;9.162;2023-12-22T07:49:04;6.00;;;1.83;;
11197;SDS011;5655;48.744;9.162;2023-12-22T07:51:29;8.18;;;2.00;;
11197;SDS011;5655;48.744;9.162;2023-12-22T07:53:54;8.23;;;1.42;;
11197;SDS011;5655;48.744;9.162;2023-12-22T07:56:20;4.28;;;1.63;;
11197;SDS011;5655;48.744;9.162;2023-12-22T07:58:45;5.38;;;1.38;;
11197;SDS011;5655;48.744;9.162;2023-12-22T08:01:10;6.47;;;1.58;;
11197;SDS011;5655;48.744;9.162;2023-12-22T08:03:35;5.78;;;1.45;;
11197;SDS011;5655;48.744;9.162;2023-12-22T08:06:02;9.63;;;1.42;;
11197;SDS011;5655;48.744;9.162;2023-12-22T08:08:28;5.35;;;1.67;;
11197;SDS011;5655;48.744;9.162;2023-12-22T08:10:54;8.55;;;1.73;;
11197;SDS011;5655;48.744;9.162;2023-12-22T08:13:19;11.15;;;1.98;;
11197;SDS011;5655;48.744;9.162;2023-12-22T08:15:45;9.02;;;2.03;;
11197;SDS011;5655;48.744;9.162;2023-12-22T08:18:10;6.88;;;1.40;;
11197;SDS011;5655;48.744;9.162;2023-12-22T08:20:36;6.65;;;1.63;;
11197;SDS011;5655;48.744;9.162;2023-12-22T08:23:01;11.77;;;2.33;;
11197;SDS011;5655;48.744;9.162;2023-12-22T08:25:27;10.90;;;2.38;;
11197;SDS011;5655;48.744;9.162;2023-12-22T08:27:52;6.88;;;2.00;;
11197;SDS011;5655;48.744;9.162;2023-12-22T08:30:17;8.13;;;1.77;;
11197;SDS011;5655;48.744;9.162;2023-12-22T08:32:43;11.15;;;2.47;;
11197;SDS011;5655;48.744;9.162;2023-12-22T08:35:08;14.25;;;4.05;;
11197;SDS011;5655;48.744;9.162;2023-12-22T08:37:34;11.65;;;2.42;;
11197;SDS011;5655;48.744;9.162;2023-12-22T08:39:59;11.35;;;1.95;;
11197;SDS011;5655;48.744;9.162;2023-12-22T08:42:25;12.80;;;2.78;;
11197;SDS011;5655;48.744;9.162;2023-12-22T08:44:51;8.25;;;2.00;;
11197;SDS011;5655;48.744;9.162;2023-12-22T08:47:16;11.73;;;2.90;;
11197;SDS011;5655;48.744;9.162;2023-12-22T08:49:41;11.02;;;2.55;;
11197;SDS011;5655;48.744;9.162;2023-12-22T08:52:07;10.00;;;2.83;;
11197;SDS011;5655;48.744;9.162;2023-12-22T08:54:33;8.65;;;2.58;;
11197;SDS011;5655;48.744;9.162;2023-12-22T08:57:00;10.52;;;2.28;;
11197;SDS011;5655;48.744;9.162;2023-12-22T08:59:26;7.57;;;1.95;;
11197;SDS011;5655;48.744;9.162;2023-12-22T09:01:51;8.40;;;1.80;;
11197;SDS011;5655;48.744;9.162;2023-12-22T09:04:16;10.82;;;1.90;;
11197;SDS011;5655;48.744;9.162;2023-12-22T09:06:41;10.73;;;1.98;;
11197;SDS011;5655;48.744;9.162;2023-12-22T09:09:07;7.93;;;1.95;;
11197;SDS011;5655;48.744;9.162;2023-12-22T09:11:34;8.52;;;2.05;;
11197;SDS011;5655;48.744;9.162;2023-12-22T09:13:59;11.00;;;2.10;;
11197;SDS011;5655;48.744;9.162;2023-12-22T09:16:24;14.98;;;2.47;;
11197;SDS011;5655;48.744;9.162;2023-12-22T09:18:50;8.73;;;2.47;;
11197;SDS011;5655;48.744;9.162;2023-12-22T09:21:16;8.00;;;1.98;;
11197;SDS011;5655;48.744;9.162;2023-12-22T09:23:43;11.90;;;2.50;;
11197;SDS011;5655;48.744;9.162;2023-12-22T09:26:11;12.68;;;2.83;;
11197;SDS011;5655;48.744;9.162;2023-12-22T09:28:36;8.80;;;2.10;;
11197;SDS011;5655;48.744;9.162;2023-12-22T09:31:02;9.45;;;2.28;;
11197;SDS011;5655;48.744;9.162;2023-12-22T09:33:30;9.68;;;2.15;;
11197;SDS011;5655;48.744;9.162;2023-12-22T09:35:55;11.35;;;1.88;;
11197;SDS011;5655;48.744;9.162;2023-12-22T09:38:21;10.07;;;2.33;;
11197;SDS011;5655;48.744;9.162;2023-12-22T09:40:48;13.15;;;2.72;;
11197;SDS011;5655;48.744;9.162;2023-12-22T09:43:14;12.50;;;2.33;;
11197;SDS011;5655;48.744;9.162;2023-12-22T09:45:40;11.02;;;2.40;;
11197;SDS011;5655;48.744;9.162;2023-12-22T09:48:06;13.63;;;2.83;;
11197;SDS011;5655;48.744;9.162;2023-12-22T09:50:33;9.13;;;2.30;;
11197;SDS011;5655;48.744;9.162;2023-12-22T09:52:59;10.35;;;2.80;;
11197;SDS011;5655;48.744;9.162;2023-12-22T09:55:25;11.43;;;2.72;;
11197;SDS011;5655;48.744;9.162;2023-12-22T09:57:52;14.27;;;2.72;;
11197;SDS011;5655;48.744;9.162;2023-12-22T10:00:19;16.55;;;3.17;;
11197;SDS011;5655;48.744;9.162;2023-12-22T10:02:46;11.73;;;3.63;;
11197;SDS011;5655;48.744;9.162;2023-12-22T10:05:11;11.55;;;2.33;;
11197;SDS011;5655;48.744;9.162;2023-12-22T10:07:41;12.32;;;2.60;;
11197;SDS011;5655;48.744;9.162;2023-12-22T10:10:08;7.60;;;2.10;;
11197;SDS011;5655;48.744;9.162;2023-12-22T10:12:34;11.10;;;2.95;;
11197;SDS011;5655;48.744;9.162;2023-12-22T10:15:02;17.05;;;3.13;;
11197;SDS011;5655;48.744;9.162;2023-12-22T10:17:28;11.38;;;2.75;;
11197;SDS011;5655;48.744;9.162;2023-12-22T10:19:54;11.05;;;2.65;;
11197;SDS011;5655;48.744;9.162;2023-12-22T10:22:19;11.55;;;2.67;;
11197;SDS011;5655;48.744;9.162;2023-12-22T10:24:48;14.95;;;2.20;;
11197;SDS011;5655;48.744;9.162;2023-12-22T10:27:15;14.98;;;2.45;;
11197;SDS011;5655;48.744;9.162;2023-12-22T10:29:47;9.65;;;2.50;;
11197;SDS011;5655;48.744;9.162;2023-12-22T10:32:20;8.50;;;2.38;;
11197;SDS011;5655;48.744;9.162;2023-12-22T10:34:46;10.02;;;2.60;;
11197;SDS011;5655;48.744;9.162;2023-12-22T10:37:12;13.98;;;2.58;;
11197;SDS011;5655;48.744;9.162;2023-12-22T10:39:40;12.38;;;3.53;;
11197;SDS011;5655;48.744;9.162;2023-12-22T10:42:06;9.38;;;1.98;;
11197;SDS011;5655;48.744;9.162;2023-12-22T10:44:32;16.20;;;3.28;;
11197;SDS011;5655;48.744;9.162;2023-12-22T10:46:57;9.98;;;2.53;;
11197;SDS011;5655;48.744;9.162;2023-12-22T10:49:23;11.30;;;2.05;;
11197;SDS011;5655;48.744;9.162;2023-12-22T10:51:50;10.52;;;2.38;;
11197;SDS011;5655;48.744;9.162;2023-12-22T10:54:16;12.25;;;1.80;;
11197;SDS011;5655;48.744;9.162;2023-12-22T10:56:42;10.32;;;2.40;;
11197;SDS011;5655;48.744;9.162;2023-12-22T10:59:08;8.18;;;1.75;;
11197;SDS011;5655;48.744;9.162;2023-12-22T11:01:35;5.10;;;1.42;;
11197;SDS011;5655;48.744;9.162;2023-12-22T11:04:08;7.57;;;1.60;;
11197;SDS011;5655;48.744;9.162;2023-12-22T11:06:38;5.93;;;1.50;;
11197;SDS011;5655;48.744;9.162;2023-12-22T11:09:07;8.30;;;2.53;;
11197;SDS011;5655;48.744;9.162;2023-12-22T11:11:37;7.20;;;1.50;;
11197;SDS011;5655;48.744;9.162;2023-12-22T11:14:04;6.28;;;1.45;;
11197;SDS011;5655;48.744;9.162;2023-12-22T11:16:31;7.25;;;1.40;;
11197;SDS011;5655;48.744;9.162;2023-12-22T11:19:01;3.63;;;1.20;;
11197;SDS011;5655;48.744;9.162;2023-12-22T11:21:27;10.45;;;1.65;;
11197;SDS011;5655;48.744;9.162;2023-12-22T11:23:54;5.70;;;1.50;;
11197;SDS011;5655;48.744;9.162;2023-12-22T11:26:21;4.72;;;1.20;;
11197;SDS011;5655;48.744;9.162;2023-12-22T11:28:48;3.40;;;1.33;;
11197;SDS011;5655;48.744;9.162;2023-12-22T11:31:14;3.72;;;1.35;;
11197;SDS011;5655;48.744;9.162;2023-12-22T11:33:44;1.60;;;1.00;;
11197;SDS011;5655;48.744;9.162;2023-12-22T11:36:10;3.40;;;1.23;;
11197;SDS011;5655;48.744;9.162;2023-12-22T11:38:36;2.95;;;0.90;;
11197;SDS011;5655;48.744;9.162;2023-12-22T11:41:01;2.25;;;0.90;;
11197;SDS011;5655;48.744;9.162;2023-12-22T11:43:29;6.43;;;1.40;;
11197;SDS011;5655;48.744;9.162;2023-12-22T11:46:00;2.55;;;1.10;;
11197;SDS011;5655;48.744;9.162;2023-12-22T11:48:27;2.83;;;1.05;;
11197;SDS011;5655;48.744;9.162;2023-12-22T11:50:54;3.25;;;1.05;;
11197;SDS011;5655;48.744;9.162;2023-12-22T12:01:18;2.83;;;1.05;;
11197;SDS011;5655;48.744;9.162;2023-12-22T12:03:51;4.80;;;1.52;;
11197;SDS011;5655;48.744;9.162;2023-12-22T12:08:52;5.47;;;1.20;;
11197;SDS011;5655;48.744;9.162;2023-12-22T12:11:18;3.35;;;0.95;;
11197;SDS011;5655;48.744;9.162;2023-12-22T12:13:47;7.05;;;1.15;;
11197;SDS011;5655;48.744;9.162;2023-12-22T12:16:15;3.58;;;1.30;;
11197;SDS011;5655;48.744;9.162;2023-12-22T12:18:44;4.10;;;1.25;;
11197;SDS011;5655;48.744;9.162;2023-12-22T12:21:10;3.58;;;1.33;;
11197;SDS011;5655;48.744;9.162;2023-12-22T12:23:36;5.90;;;1.50;;
11197;SDS011;5655;48.744;9.162;2023-12-22T12:26:03;1.58;;;1.00;;
11197;SDS011;5655;48.744;9.162;2023-12-22T12:28:31;4.80;;;1.10;;
11197;SDS011;5655;48.744;9.162;2023-12-22T12:31:04;1.00;;;0.80;;
11197;SDS011;5655;48.744;9.162;2023-12-22T12:33:31;2.03;;;0.77;;
11197;SDS011;5655;48.744;9.162;2023-12-22T12:35:57;2.38;;;1.08;;
11197;SDS011;5655;48.744;9.162;2023-12-22T12:38:43;3.03;;;0.57;;
11197;SDS011;5655;48.744;9.162;2023-12-22T12:41:18;4.13;;;0.93;;
11197;SDS011;5655;48.744;9.162;2023-12-22T12:43:56;1.73;;;0.70;;
11197;SDS011;5655;48.744;9.162;2023-12-22T12:46:23;2.75;;;0.85;;
11197;SDS011;5655;48.744;9.162;2023-12-22T12:49:06;2.40;;;0.77;;
11197;SDS011;5655;48.744;9.162;2023-12-22T12:51:39;2.80;;;0.77;;
11197;SDS011;5655;48.744;9.162;2023-12-22T12:54:06;2.15;;;0.65;;
11197;SDS011;5655;48.744;9.162;2023-12-22T12:57:05;1.88;;;0.50;;
11197;SDS011;5655;48.744;9.162;2023-12-22T12:59:24;1.80;;;0.68;;
11197;SDS011;5655;48.744;9.162;2023-12-22T13:01:50;2.08;;;0.70;;
11197;SDS011;5655;48.744;9.162;2023-12-22T13:04:15;2.35;;;0.70;;
11197;SDS011;5655;48.744;9.162;2023-12-22T13:06:47;4.47;;;1.02;;
11197;SDS011;5655;48.744;9.162;2023-12-22T13:09:13;1.65;;;0.80;;
11197;SDS011;5655;48.744;9.162;2023-12-22T13:11:39;2.00;;;1.05;;
11197;SDS011;5655;48.744;9.162;2023-12-22T13:14:05;2.38;;;0.70;;
11197;SDS011;5655;48.744;9.162;2023-12-22T13:16:32;1.55;;;0.60;;
11197;SDS011;5655;48.744;9.162;2023-12-22T13:18:59;2.50;;;0.60;;
11197;SDS011;5655;48.744;9.162;2023-12-22T13:21:25;2.00;;;0.70;;
11197;SDS011;5655;48.744;9.162;2023-12-22T13:27:04;1.00;;;0.70;;
11197;SDS011;5655;48.744;9.162;2023-12-22T13:29:41;1.15;;;0.70;;
11197;SDS011;5655;48.744;9.162;2023-12-22T13:32:08;0.65;;;0.63;;
11197;SDS011;5655;48.744;9.162;2023-12-22T13:34:39;1.02;;;0.50;;
11197;SDS011;5655;48.744;9.162;2023-12-22T13:37:12;0.55;;;0.40;;
11197;SDS011;5655;48.744;9.162;2023-12-22T13:39:37;0.65;;;0.50;;
11197;SDS011;5655;48.744;9.162;2023-12-22T13:42:03;2.50;;;0.40;;
11197;SDS011;5655;48.744;9.162;2023-12-22T13:44:29;0.55;;;0.40;;
11197;SDS011;5655;48.744;9.162;2023-12-22T13:46:54;0.70;;;0.40;;
11197;SDS011;5655;48.744;9.162;2023-12-22T13:49:19;0.38;;;0.25;;
11197;SDS011;5655;48.744;9.162;2023-12-22T13:51:45;0.40;;;0.40;;
11197;SDS011;5655;48.744;9.162;2023-12-22T13:54:12;0.20;;;0.20;;
11197;SDS011;5655;48.744;9.162;2023-12-22T13:56:38;1.58;;;0.30;;
11197;SDS011;5655;48.744;9.162;2023-12-22T13:59:09;0.30;;;0.20;;
11197;SDS011;5655;48.744;9.162;2023-12-22T14:01:35;0.22;;;0.20;;
11197;SDS011;5655;48.744;9.162;2023-12-22T14:04:01;1.55;;;0.30;;
11197;SDS011;5655;48.744;9.162;2023-12-22T14:06:26;1.08;;;0.40;;
11197;SDS011;5655;48.744;9.162;2023-12-22T14:08:55;0.93;;;0.45;;
11197;SDS011;5655;48.744;9.162;2023-12-22T14:11:21;1.15;;;0.30;;
11197;SDS011;5655;48.744;9.162;2023-12-22T14:13:47;1.02;;;0.50;;
11197;SDS011;5655;48.744;9.162;2023-12-22T14:16:12;0.80;;;0.30;;
11197;SDS011;5655;48.744;9.162;2023-12-22T14:18:40;0.20;;;0.20;;
11197;SDS011;5655;48.744;9.162;2023-12-22T14:21:05;0.80;;;0.30;;
11197;SDS011;5655;48.744;9.162;2023-12-22T14:23:31;0.65;;;0.40;;
11197;SDS011;5655;48.744;9.162;2023-12-22T14:25:56;1.35;;;0.40;;
11197;SDS011;5655;48.744;9.162;2023-12-22T14:28:21;0.43;;;0.40;;
11197;SDS011;5655;48.744;9.162;2023-12-22T14:30:47;0.38;;;0.25;;
11197;SDS011;5655;48.744;9.162;2023-12-22T14:33:12;0.35;;;0.20;;
11197;SDS011;5655;48.744;9.162;2023-12-22T14:35:38;0.50;;;0.50;;
11197;SDS011;5655;48.744;9.162;2023-12-22T14:38:03;0.20;;;0.20;;
11197;SDS011;5655;48.744;9.162;2023-12-22T14:40:30;0.20;;;0.20;;
11197;SDS011;5655;48.744;9.162;2023-12-22T14:42:55;0.20;;;0.20;;
11197;SDS011;5655;48.744;9.162;2023-12-22T14:45:21;0.30;;;0.30;;
11197;SDS011;5655;48.744;9.162;2023-12-22T14:47:46;0.30;;;0.30;;
11197;SDS011;5655;48.744;9.162;2023-12-22T14:50:12;0.45;;;0.22;;
11197;SDS011;5655;48.744;9.162;2023-12-22T14:52:38;1.52;;;0.35;;
11197;SDS011;5655;48.744;9.162;2023-12-22T14:55:03;1.90;;;0.40;;
11197;SDS011;5655;48.744;9.162;2023-12-22T14:57:32;0.30;;;0.30;;
11197;SDS011;5655;48.744;9.162;2023-12-22T14:59:58;0.52;;;0.40;;
11197;SDS011;5655;48.744;9.162;2023-12-22T15:02:24;0.63;;;0.40;;
11197;SDS011;5655;48.744;9.162;2023-12-22T15:04:49;0.20;;;0.20;;
11197;SDS011;5655;48.744;9.162;2023-12-22T15:07:15;0.60;;;0.52;;
11197;SDS011;5655;48.744;9.162;2023-12-22T15:09:41;0.47;;;0.40;;
11197;SDS011;5655;48.744;9.162;2023-12-22T15:12:07;0.60;;;0.30;;
11197;SDS011;5655;48.744;9.162;2023-12-22T15:14:32;0.52;;;0.50;;
11197;SDS011;5655;48.744;9.162;2023-12-22T15:16:57;1.35;;;0.40;;